Seastreak Highlands — WDE4031 — position and weather

sailwx.info

Track history (hours):
 
Tides and Currents Weather Stations Pressure Air Temp Water Temp Dewpoint Dewpoint Depression Visibility Wind Speed Wind Dir Waves Ship Positions

Seastreak Highlands

Owner: Seastreak llc, atlantic highlands, NJ. More information available from US FCC via Universal Licensing System and Coast Guard Vessel Documentation Center.

Last reported at 2017-Aug-19 02:50 UTC. Time now 2017-Aug-19 05:26 UTC.
Position N 40°25' W 074°02'.

Length 44 m.

Type: High speed craft. MMSI: 367347670.

Date/timePositionNaut miles runAvg speedWind from/ knotsBaromVisibWave heightAir tempDewpointWater temp
2017-Aug-19 02:50N 40°25' W 074°02'4 9.5
2017-Aug-19 02:27N 40°29' W 074°02'1330.2
2017-Aug-19 02:00N 40°42' W 074°00'3 5.9
2017-Aug-19 01:31N 40°45' W 073°58'815.4
2017-Aug-19 01:01N 40°38' W 074°03'12 6.8
2017-Aug-18 23:11N 40°25' W 074°01'914.3
2017-Aug-18 22:32N 40°35' W 074°02'130.7
2017-Aug-18 22:30N 40°36' W 074°03'919.1
2017-Aug-18 22:00N 40°45' W 073°58'1222.6
2017-Aug-18 21:30N 40°33' W 074°02'2 1.8
2017-Aug-18 20:34N 40°35' W 074°03'229.1
2017-Aug-18 20:31N 40°37' W 074°03'713.8
2017-Aug-18 20:01N 40°43' W 073°58'815.2
2017-Aug-18 19:30N 40°36' W 074°03'2 1.2
2017-Aug-18 18:01N 40°34' W 074°02'131.1
2017-Aug-18 18:00N 40°35' W 074°02'816.4
2017-Aug-18 17:31N 40°42' W 073°59'0 0.3
2017-Aug-18 17:00N 40°42' W 073°60'1428.0
2017-Aug-18 16:30N 40°28' W 074°01'2 3.5
2017-Aug-18 15:47N 40°31' W 074°02'933.0
2017-Aug-18 15:30N 40°40' W 074°03'510.7
2017-Aug-18 15:01N 40°43' W 073°58'611.4
2017-Aug-18 14:31N 40°39' W 074°02'7 6.0
2017-Aug-18 13:23N 40°32' W 074°02'1027.9
2017-Aug-18 13:00N 40°42' W 074°00'3 5.7
2017-Aug-18 12:30N 40°45' W 073°58'713.6
2017-Aug-18 12:01N 40°39' W 074°02'1411.9
2017-Aug-18 10:52N 40°25' W 074°02'0 0.0
2017-Aug-18 10:30N 40°25' W 074°02'0 0.0
2017-Aug-18 02:56N 40°25' W 074°02'4 8.2
2017-Aug-18 02:29N 40°29' W 074°02'1328.4
2017-Aug-18 02:00N 40°42' W 074°00'3 5.9
2017-Aug-18 01:31N 40°45' W 073°58'714.1
2017-Aug-18 01:01N 40°38' W 074°02'13 7.4
2017-Aug-17 23:15N 40°25' W 074°01'916.9
2017-Aug-17 22:44N 40°34' W 074°03'628.3
2017-Aug-17 22:31N 40°40' W 074°03'510.8
2017-Aug-17 22:01N 40°45' W 073°58'1324.0
2017-Aug-17 21:29N 40°32' W 074°02'2 2.6
2017-Aug-17 20:34N 40°35' W 074°03'230.1
2017-Aug-17 20:30N 40°37' W 074°03'714.0
2017-Aug-17 20:01N 40°43' W 073°58'713.8
2017-Aug-17 19:30N 40°37' W 074°03'1211.4
2017-Aug-17 18:28N 40°25' W 074°00'1020.1
2017-Aug-17 17:58N 40°34' W 074°03'817.5
2017-Aug-17 17:31N 40°42' W 074°00'2 4.6
2017-Aug-17 17:01N 40°40' W 074°01'1324.9
2017-Aug-17 16:30N 40°27' W 074°01'1 1.0
2017-Aug-17 15:55N 40°28' W 074°01'1228.8
2017-Aug-17 15:31N 40°40' W 074°01'4 7.4
2017-Aug-17 15:01N 40°43' W 073°58'611.9
2017-Aug-17 14:30N 40°38' W 074°03'1218.5
2017-Aug-17 13:50N 40°25' W 074°02'816.0
2017-Aug-17 13:21N 40°33' W 074°02'927.6
2017-Aug-17 13:00N 40°42' W 074°00'3 6.0
2017-Aug-17 12:31N 40°45' W 073°58'714.8
2017-Aug-17 12:00N 40°38' W 074°03'1310.1
2017-Aug-17 10:44N 40°25' W 074°02'0 0.0
2017-Aug-17 03:07N 40°25' W 074°02'0 0.2
2017-Aug-17 02:57N 40°25' W 074°02'610.9
2017-Aug-17 02:23N 40°31' W 074°02'1128.5
2017-Aug-17 02:00N 40°42' W 074°00'3 5.7
2017-Aug-17 01:30N 40°45' W 073°58'815.6
2017-Aug-17 01:01N 40°38' W 074°03'1326.1
2017-Aug-17 00:30N 40°25' W 073°60'11 5.9
2017-Aug-16 22:40N 40°35' W 074°03'529.6
2017-Aug-16 22:31N 40°40' W 074°01'510.9
2017-Aug-16 22:00N 40°45' W 073°58'1122.4
2017-Aug-16 21:30N 40°34' W 074°02'0 0.5
2017-Aug-16 20:36N 40°33' W 074°02'331.5
2017-Aug-16 20:30N 40°36' W 074°03'815.3
2017-Aug-16 20:01N 40°43' W 073°58'611.5
2017-Aug-16 19:31N 40°38' W 074°02'4 3.0
2017-Aug-16 18:00N 40°34' W 074°02'917.8
2017-Aug-16 17:30N 40°42' W 074°00'2 3.3
2017-Aug-16 17:01N 40°43' W 073°58'1530.3
2017-Aug-16 16:30N 40°28' W 074°02'1 1.4
2017-Aug-16 15:57N 40°28' W 074°01'1125.7
2017-Aug-16 15:31N 40°39' W 074°02'612.0
2017-Aug-16 15:00N 40°44' W 073°58'714.0
2017-Aug-16 14:31N 40°38' W 074°02'1320.4
2017-Aug-16 13:52N 40°25' W 074°02'915.7
2017-Aug-16 13:19N 40°34' W 074°02'827.5
2017-Aug-16 13:00N 40°42' W 074°00'3 5.8
2017-Aug-16 12:30N 40°45' W 073°58'715.3
2017-Aug-16 12:00N 40°38' W 074°03'1312.4
2017-Aug-16 10:59N 40°25' W 074°02'8 0.9
2017-Aug-16 02:20N 40°33' W 074°02'929.2
2017-Aug-16 02:00N 40°42' W 074°00'3 5.9
2017-Aug-16 01:30N 40°45' W 073°58'816.7
2017-Aug-16 01:01N 40°37' W 074°03'12 6.4
2017-Aug-15 23:09N 40°25' W 074°02'815.2
2017-Aug-15 22:37N 40°33' W 074°02'430.6
2017-Aug-15 22:31N 40°37' W 074°03'917.1
2017-Aug-15 22:00N 40°45' W 073°58'1121.0
2017-Aug-15 21:30N 40°34' W 074°02'1016.3
2017-Aug-15 20:54N 40°25' W 074°00'1230.0
2017-Aug-15 20:31N 40°36' W 074°03'713.6
2017-Aug-15 20:01N 40°43' W 073°59'611.0
2017-Aug-15 19:30N 40°38' W 074°03'7 5.3
2017-Aug-15 18:08N 40°30' W 074°02'532.3
2017-Aug-15 17:58N 40°36' W 074°03'715.4
2017-Aug-15 17:31N 40°42' W 073°59'1 1.9
2017-Aug-15 17:01N 40°43' W 073°58'11 9.2
2017-Aug-15 15:46N 40°32' W 074°02'831.9
2017-Aug-15 15:30N 40°40' W 074°01'611.0
2017-Aug-15 15:00N 40°45' W 073°58'713.5
2017-Aug-15 14:31N 40°39' W 074°02'1416.2
2017-Aug-15 13:40N 40°25' W 074°02'926.3
2017-Aug-15 13:20N 40°34' W 074°02'825.3
2017-Aug-15 13:01N 40°42' W 074°00'3 5.9
2017-Aug-15 12:31N 40°45' W 073°58'713.6
2017-Aug-15 12:01N 40°39' W 074°02'1317.3
2017-Aug-15 11:14N 40°25' W 074°02'0 0.1
2017-Aug-15 10:59N 40°25' W 074°02'0 0.0
2017-Aug-15 10:30N 40°25' W 074°02'0 0.0
2017-Aug-15 10:00N 40°25' W 074°02'0 0.0
2017-Aug-15 09:30N 40°25' W 074°02'0 0.0
2017-Aug-15 02:59N 40°25' W 074°02'5 8.4
2017-Aug-15 02:26N 40°30' W 074°02'1229.1
2017-Aug-15 02:00N 40°42' W 074°00'3 5.8
2017-Aug-15 01:30N 40°45' W 073°58'816.9
2017-Aug-15 01:01N 40°37' W 074°03'1322.7
2017-Aug-15 00:27N 40°25' W 073°60'0 0.0
2017-Aug-14 23:22N 40°25' W 073°60'1012.6
2017-Aug-14 22:35N 40°34' W 074°03'231.5
2017-Aug-14 22:31N 40°36' W 074°03'917.3
2017-Aug-14 22:00N 40°45' W 073°58'1020.1
2017-Aug-14 21:31N 40°36' W 074°03'1121.8
2017-Aug-14 21:00N 40°25' W 073°60'1122.5
2017-Aug-14 20:30N 40°36' W 074°03'713.6
2017-Aug-14 20:01N 40°42' W 074°00'3 5.7
2017-Aug-14 19:31N 40°39' W 074°01'1526.8
2017-Aug-14 18:57N 40°25' W 073°60'0 0.6
2017-Aug-14 18:30N 40°25' W 074°00'918.2
2017-Aug-14 18:00N 40°34' W 074°02'918.0
2017-Aug-14 17:31N 40°42' W 073°60'1 1.2
2017-Aug-14 17:01N 40°42' W 074°00'1630.7
2017-Aug-14 16:30N 40°26' W 074°01'2 3.1
2017-Aug-14 15:57N 40°28' W 074°01'1228.5
2017-Aug-14 15:31N 40°40' W 074°01'4 7.9
2017-Aug-14 15:00N 40°43' W 073°58'613.0
2017-Aug-14 14:30N 40°38' W 074°03'1216.0
2017-Aug-14 13:44N 40°26' W 074°01'821.2
2017-Aug-14 13:20N 40°34' W 074°02'825.6
2017-Aug-14 13:00N 40°42' W 074°00'3 5.9
2017-Aug-14 12:31N 40°44' W 073°58'815.7
2017-Aug-14 12:01N 40°37' W 074°03'1219.5
2017-Aug-14 11:23N 40°25' W 074°02'0 0.0
2017-Aug-14 10:58N 40°25' W 074°02'0 0.0
2017-Aug-14 10:30N 40°25' W 074°02'0 0.0
2017-Aug-14 01:22N 40°25' W 074°02'2 1.9
2017-Aug-14 00:22N 40°25' W 073°60'923.8
2017-Aug-14 00:00N 40°33' W 073°57'3 6.4
2017-Aug-13 23:29N 40°34' W 074°01'817.0
2017-Aug-13 23:00N 40°42' W 074°00'0 0.0
2017-Aug-13 22:30N 40°42' W 074°00'4 8.4
2017-Aug-13 22:01N 40°38' W 074°02'8 7.6
2017-Aug-13 20:57N 40°34' W 073°53'817.6
2017-Aug-13 20:30N 40°39' W 074°02'3 7.0
2017-Aug-13 20:01N 40°42' W 074°00'0 0.0
2017-Aug-13 19:30N 40°42' W 074°00'510.5
2017-Aug-13 19:00N 40°37' W 074°03'7 7.0
2017-Aug-13 17:59N 40°34' W 073°54'715.2
2017-Aug-13 17:30N 40°39' W 074°02'4 7.0
2017-Aug-13 17:00N 40°42' W 074°00'0 0.0
2017-Aug-13 16:30N 40°42' W 074°00'3 7.0
2017-Aug-13 16:01N 40°39' W 074°02'915.6
2017-Aug-13 15:28N 40°35' W 073°52'2 3.7
2017-Aug-13 14:52N 40°34' W 073°55'720.8
2017-Aug-13 14:31N 40°39' W 074°02'4 7.0
2017-Aug-13 14:01N 40°42' W 074°00'1 1.2
2017-Aug-13 13:31N 40°42' W 074°01'1326.2
2017-Aug-13 13:00N 40°28' W 074°01'3 6.2
2017-Aug-13 12:28N 40°25' W 074°02'8 0.6
2017-Aug-12 23:03N 40°33' W 074°02'235.3
2017-Aug-12 23:00N 40°35' W 074°03'715.1
2017-Aug-12 22:31N 40°42' W 074°00'0 0.0
2017-Aug-12 22:01N 40°42' W 074°00'0 0.0
2017-Aug-12 21:30N 40°42' W 074°00'0 0.0
2017-Aug-12 21:00N 40°42' W 074°00'0 0.0
2017-Aug-12 20:30N 40°42' W 074°00'0 0.0
2017-Aug-12 20:01N 40°42' W 074°00'0 0.0
2017-Aug-12 19:30N 40°42' W 074°00'0 0.0
2017-Aug-12 19:01N 40°42' W 074°00'0 0.0
2017-Aug-12 18:31N 40°42' W 074°00'0 0.0
2017-Aug-12 18:01N 40°42' W 074°00'0 0.0
2017-Aug-12 17:30N 40°42' W 074°00'0 0.0
2017-Aug-12 17:00N 40°42' W 074°00'0 0.0
2017-Aug-12 16:30N 40°42' W 074°00'0 0.0
2017-Aug-12 16:01N 40°42' W 074°00'0 0.0
2017-Aug-12 15:30N 40°42' W 074°00'0 0.1
2017-Aug-12 15:01N 40°42' W 074°00'0 0.2
2017-Aug-12 14:30N 40°42' W 074°00'0 0.0
2017-Aug-12 14:00N 40°42' W 074°00'0 0.0
2017-Aug-12 13:30N 40°42' W 074°00'1121.3
2017-Aug-12 13:01N 40°32' W 074°02'6 0.7
2017-Aug-12 03:24N 40°26' W 074°01'0 0.3
2017-Aug-12 02:59N 40°25' W 074°01'3 6.8
2017-Aug-12 02:30N 40°29' W 074°02'1427.9
2017-Aug-12 02:00N 40°42' W 074°00'3 5.8
2017-Aug-12 01:30N 40°45' W 073°58'918.5
2017-Aug-12 01:00N 40°36' W 074°02'1219.2
2017-Aug-12 00:24N 40°25' W 073°60'0 0.1
2017-Aug-11 23:42N 40°25' W 073°60'1 3.3
2017-Aug-11 23:19N 40°25' W 074°01'912.9
2017-Aug-11 22:38N 40°34' W 074°02'431.5
2017-Aug-11 22:31N 40°38' W 074°03'815.1
2017-Aug-11 22:00N 40°45' W 073°58'1427.3
2017-Aug-11 21:30N 40°31' W 074°02'713.5
2017-Aug-11 21:00N 40°25' W 073°60'1223.8
2017-Aug-11 20:31N 40°36' W 074°03'816.0
2017-Aug-11 20:01N 40°43' W 073°58'816.3
2017-Aug-11 19:30N 40°36' W 074°02'11 9.8
2017-Aug-11 18:25N 40°25' W 074°02'921.1
2017-Aug-11 17:58N 40°35' W 074°03'817.2
2017-Aug-11 17:31N 40°42' W 074°00'0 0.5
2017-Aug-11 17:01N 40°42' W 074°00'7 5.4
2017-Aug-11 15:45N 40°35' W 074°03'730.1
2017-Aug-11 15:30N 40°42' W 074°00'3 5.7
2017-Aug-11 15:01N 40°44' W 073°58'1713.0
2017-Aug-11 13:40N 40°27' W 074°01'720.3
2017-Aug-11 13:19N 40°34' W 074°02'825.9
2017-Aug-11 13:01N 40°42' W 074°00'3 5.8
2017-Aug-11 12:30N 40°45' W 073°58'510.5
2017-Aug-11 12:01N 40°40' W 074°01'1528.9
2017-Aug-11 11:30N 40°25' W 074°02'0 0.0
2017-Aug-11 10:50N 40°25' W 074°02'0 0.0
2017-Aug-11 10:30N 40°25' W 074°02'1 0.1
2017-Aug-11 02:50N 40°25' W 074°01'816.9
2017-Aug-11 02:21N 40°34' W 074°02'925.3
2017-Aug-11 02:00N 40°42' W 074°00'3 5.9
2017-Aug-11 01:31N 40°45' W 073°58'713.4
2017-Aug-11 01:01N 40°39' W 074°02'1426.5
2017-Aug-11 00:28N 40°25' W 073°60'0 0.0
2017-Aug-10 23:23N 40°25' W 073°60'0 0.1
2017-Aug-10 23:01N 40°25' W 073°60'1325.4
2017-Aug-10 22:30N 40°37' W 074°03'816.2
2017-Aug-10 22:00N 40°45' W 073°58'1121.7
2017-Aug-10 21:30N 40°34' W 074°03'1018.7
2017-Aug-10 20:59N 40°25' W 073°60'1124.2
2017-Aug-10 20:30N 40°36' W 074°03'816.1
2017-Aug-10 20:01N 40°43' W 073°58'815.8
2017-Aug-10 19:30N 40°36' W 074°03'1212.6
2017-Aug-10 18:35N 40°25' W 073°60'0 0.3
2017-Aug-10 18:29N 40°25' W 073°60'917.4
2017-Aug-10 18:00N 40°33' W 074°02'919.3
2017-Aug-10 17:31N 40°42' W 074°00'1 2.0
2017-Aug-10 17:01N 40°42' W 073°59'1528.4
2017-Aug-10 16:30N 40°28' W 074°01'1 1.3
2017-Aug-10 15:57N 40°28' W 074°01'1329.1
2017-Aug-10 15:31N 40°41' W 074°02'4 7.5
2017-Aug-10 15:01N 40°44' W 073°58'713.2
2017-Aug-10 14:31N 40°38' W 074°03'1320.2
2017-Aug-10 13:53N 40°25' W 074°02'612.7
2017-Aug-10 13:24N 40°31' W 074°02'1128.2
2017-Aug-10 13:00N 40°42' W 074°00'3 5.8
2017-Aug-10 12:30N 40°45' W 073°58'612.4
2017-Aug-10 12:01N 40°39' W 074°02'1421.3
2017-Aug-10 11:21N 40°25' W 074°02'0 0.0
2017-Aug-10 10:46N 40°25' W 074°02'8 1.0
2017-Aug-10 02:20N 40°34' W 074°02'926.3
2017-Aug-10 02:01N 40°42' W 074°00'3 5.8
2017-Aug-10 01:30N 40°45' W 073°58'815.3
2017-Aug-10 01:01N 40°38' W 074°03'13 9.0
2017-Aug-09 23:30N 40°25' W 073°60'6 8.7
2017-Aug-09 22:51N 40°30' W 074°02'927.8
2017-Aug-09 22:31N 40°39' W 074°02'611.3
2017-Aug-09 22:00N 40°45' W 073°58'1021.0
2017-Aug-09 21:31N 40°35' W 074°03'1120.2
2017-Aug-09 20:59N 40°25' W 073°60'1224.5
2017-Aug-09 20:30N 40°36' W 074°03'612.8
2017-Aug-09 20:01N 40°42' W 074°00'4 7.5
2017-Aug-09 19:31N 40°39' W 074°02'1415.7
2017-Aug-09 18:36N 40°25' W 073°60'0 0.2
2017-Aug-09 18:30N 40°25' W 073°60'918.1
2017-Aug-09 17:59N 40°34' W 074°02'818.1
2017-Aug-09 17:31N 40°42' W 074°00'0 0.9
2017-Aug-09 17:01N 40°42' W 073°60'1428.4
2017-Aug-09 16:30N 40°28' W 074°02'7 8.7
2017-Aug-09 15:41N 40°35' W 074°03'531.4
2017-Aug-09 15:31N 40°41' W 074°01'5 9.1
2017-Aug-09 15:00N 40°44' W 073°58'815.0
2017-Aug-09 14:30N 40°38' W 074°03'1324.2
2017-Aug-09 13:59N 40°25' W 074°02'913.7
2017-Aug-09 13:21N 40°34' W 074°02'824.7
2017-Aug-09 13:00N 40°42' W 074°00'3 5.8
2017-Aug-09 12:30N 40°45' W 073°58'714.3
2017-Aug-09 12:01N 40°38' W 074°02'1325.8
2017-Aug-09 11:30N 40°25' W 074°02'2 3.3
2017-Aug-09 10:56N 40°25' W 073°60'  
Track history (hours):
 
Tides and Currents Weather Stations Pressure Air Temp Water Temp Dewpoint Dewpoint Depression Visibility Wind Speed Wind Dir Waves Ship Positions

Seastreak Highlands

Owner: Seastreak llc, atlantic highlands, NJ. More information available from US FCC via Universal Licensing System and Coast Guard Vessel Documentation Center.

Last reported at 2017-Aug-19 02:50 UTC. Time now 2017-Aug-19 05:26 UTC.
Position N 40°25' W 074°02'.

Length 44 m.

Type: High speed craft. MMSI: 367347670.

Date/timePositionNaut miles runAvg speedWind from/ knotsBaromVisibWave heightAir tempDewpointWater temp
2017-Aug-19 02:50N 40°25' W 074°02'4 9.5
2017-Aug-19 02:27N 40°29' W 074°02'1330.2
2017-Aug-19 02:00N 40°42' W 074°00'3 5.9
2017-Aug-19 01:31N 40°45' W 073°58'815.4
2017-Aug-19 01:01N 40°38' W 074°03'12 6.8
2017-Aug-18 23:11N 40°25' W 074°01'914.3
2017-Aug-18 22:32N 40°35' W 074°02'130.7
2017-Aug-18 22:30N 40°36' W 074°03'919.1
2017-Aug-18 22:00N 40°45' W 073°58'1222.6
2017-Aug-18 21:30N 40°33' W 074°02'2 1.8
2017-Aug-18 20:34N 40°35' W 074°03'229.1
2017-Aug-18 20:31N 40°37' W 074°03'713.8
2017-Aug-18 20:01N 40°43' W 073°58'815.2
2017-Aug-18 19:30N 40°36' W 074°03'2 1.2
2017-Aug-18 18:01N 40°34' W 074°02'131.1
2017-Aug-18 18:00N 40°35' W 074°02'816.4
2017-Aug-18 17:31N 40°42' W 073°59'0 0.3
2017-Aug-18 17:00N 40°42' W 073°60'1428.0
2017-Aug-18 16:30N 40°28' W 074°01'2 3.5
2017-Aug-18 15:47N 40°31' W 074°02'933.0
2017-Aug-18 15:30N 40°40' W 074°03'510.7
2017-Aug-18 15:01N 40°43' W 073°58'611.4
2017-Aug-18 14:31N 40°39' W 074°02'7 6.0
2017-Aug-18 13:23N 40°32' W 074°02'1027.9
2017-Aug-18 13:00N 40°42' W 074°00'3 5.7
2017-Aug-18 12:30N 40°45' W 073°58'713.6
2017-Aug-18 12:01N 40°39' W 074°02'1411.9
2017-Aug-18 10:52N 40°25' W 074°02'0 0.0
2017-Aug-18 10:30N 40°25' W 074°02'0 0.0
2017-Aug-18 02:56N 40°25' W 074°02'4 8.2
2017-Aug-18 02:29N 40°29' W 074°02'1328.4
2017-Aug-18 02:00N 40°42' W 074°00'3 5.9
2017-Aug-18 01:31N 40°45' W 073°58'714.1
2017-Aug-18 01:01N 40°38' W 074°02'13 7.4
2017-Aug-17 23:15N 40°25' W 074°01'916.9
2017-Aug-17 22:44N 40°34' W 074°03'628.3
2017-Aug-17 22:31N 40°40' W 074°03'510.8
2017-Aug-17 22:01N 40°45' W 073°58'1324.0
2017-Aug-17 21:29N 40°32' W 074°02'2 2.6
2017-Aug-17 20:34N 40°35' W 074°03'230.1
2017-Aug-17 20:30N 40°37' W 074°03'714.0
2017-Aug-17 20:01N 40°43' W 073°58'713.8
2017-Aug-17 19:30N 40°37' W 074°03'1211.4
2017-Aug-17 18:28N 40°25' W 074°00'1020.1
2017-Aug-17 17:58N 40°34' W 074°03'817.5
2017-Aug-17 17:31N 40°42' W 074°00'2 4.6
2017-Aug-17 17:01N 40°40' W 074°01'1324.9
2017-Aug-17 16:30N 40°27' W 074°01'1 1.0
2017-Aug-17 15:55N 40°28' W 074°01'1228.8
2017-Aug-17 15:31N 40°40' W 074°01'4 7.4
2017-Aug-17 15:01N 40°43' W 073°58'611.9
2017-Aug-17 14:30N 40°38' W 074°03'1218.5
2017-Aug-17 13:50N 40°25' W 074°02'816.0
2017-Aug-17 13:21N 40°33' W 074°02'927.6
2017-Aug-17 13:00N 40°42' W 074°00'3 6.0
2017-Aug-17 12:31N 40°45' W 073°58'714.8
2017-Aug-17 12:00N 40°38' W 074°03'1310.1
2017-Aug-17 10:44N 40°25' W 074°02'0 0.0
2017-Aug-17 03:07N 40°25' W 074°02'0 0.2
2017-Aug-17 02:57N 40°25' W 074°02'610.9
2017-Aug-17 02:23N 40°31' W 074°02'1128.5
2017-Aug-17 02:00N 40°42' W 074°00'3 5.7
2017-Aug-17 01:30N 40°45' W 073°58'815.6
2017-Aug-17 01:01N 40°38' W 074°03'1326.1
2017-Aug-17 00:30N 40°25' W 073°60'11 5.9
2017-Aug-16 22:40N 40°35' W 074°03'529.6
2017-Aug-16 22:31N 40°40' W 074°01'510.9
2017-Aug-16 22:00N 40°45' W 073°58'1122.4
2017-Aug-16 21:30N 40°34' W 074°02'0 0.5
2017-Aug-16 20:36N 40°33' W 074°02'331.5
2017-Aug-16 20:30N 40°36' W 074°03'815.3
2017-Aug-16 20:01N 40°43' W 073°58'611.5
2017-Aug-16 19:31N 40°38' W 074°02'4 3.0
2017-Aug-16 18:00N 40°34' W 074°02'917.8
2017-Aug-16 17:30N 40°42' W 074°00'2 3.3
2017-Aug-16 17:01N 40°43' W 073°58'1530.3
2017-Aug-16 16:30N 40°28' W 074°02'1 1.4
2017-Aug-16 15:57N 40°28' W 074°01'1125.7
2017-Aug-16 15:31N 40°39' W 074°02'612.0
2017-Aug-16 15:00N 40°44' W 073°58'714.0
2017-Aug-16 14:31N 40°38' W 074°02'1320.4
2017-Aug-16 13:52N 40°25' W 074°02'915.7
2017-Aug-16 13:19N 40°34' W 074°02'827.5
2017-Aug-16 13:00N 40°42' W 074°00'3 5.8
2017-Aug-16 12:30N 40°45' W 073°58'715.3
2017-Aug-16 12:00N 40°38' W 074°03'1312.4
2017-Aug-16 10:59N 40°25' W 074°02'8 0.9
2017-Aug-16 02:20N 40°33' W 074°02'929.2
2017-Aug-16 02:00N 40°42' W 074°00'3 5.9
2017-Aug-16 01:30N 40°45' W 073°58'816.7
2017-Aug-16 01:01N 40°37' W 074°03'12 6.4
2017-Aug-15 23:09N 40°25' W 074°02'815.2
2017-Aug-15 22:37N 40°33' W 074°02'430.6
2017-Aug-15 22:31N 40°37' W 074°03'917.1
2017-Aug-15 22:00N 40°45' W 073°58'1121.0
2017-Aug-15 21:30N 40°34' W 074°02'1016.3
2017-Aug-15 20:54N 40°25' W 074°00'1230.0
2017-Aug-15 20:31N 40°36' W 074°03'713.6
2017-Aug-15 20:01N 40°43' W 073°59'611.0
2017-Aug-15 19:30N 40°38' W 074°03'7 5.3
2017-Aug-15 18:08N 40°30' W 074°02'532.3
2017-Aug-15 17:58N 40°36' W 074°03'715.4
2017-Aug-15 17:31N 40°42' W 073°59'1 1.9
2017-Aug-15 17:01N 40°43' W 073°58'11 9.2
2017-Aug-15 15:46N 40°32' W 074°02'831.9
2017-Aug-15 15:30N 40°40' W 074°01'611.0
2017-Aug-15 15:00N 40°45' W 073°58'713.5
2017-Aug-15 14:31N 40°39' W 074°02'1416.2
2017-Aug-15 13:40N 40°25' W 074°02'926.3
2017-Aug-15 13:20N 40°34' W 074°02'825.3
2017-Aug-15 13:01N 40°42' W 074°00'3 5.9
2017-Aug-15 12:31N 40°45' W 073°58'713.6
2017-Aug-15 12:01N 40°39' W 074°02'1317.3
2017-Aug-15 11:14N 40°25' W 074°02'0 0.1
2017-Aug-15 10:59N 40°25' W 074°02'0 0.0
2017-Aug-15 10:30N 40°25' W 074°02'0 0.0
2017-Aug-15 10:00N 40°25' W 074°02'0 0.0
2017-Aug-15 09:30N 40°25' W 074°02'0 0.0
2017-Aug-15 02:59N 40°25' W 074°02'5 8.4
2017-Aug-15 02:26N 40°30' W 074°02'1229.1
2017-Aug-15 02:00N 40°42' W 074°00'3 5.8
2017-Aug-15 01:30N 40°45' W 073°58'816.9
2017-Aug-15 01:01N 40°37' W 074°03'1322.7
2017-Aug-15 00:27N 40°25' W 073°60'0 0.0
2017-Aug-14 23:22N 40°25' W 073°60'1012.6
2017-Aug-14 22:35N 40°34' W 074°03'231.5
2017-Aug-14 22:31N 40°36' W 074°03'917.3
2017-Aug-14 22:00N 40°45' W 073°58'1020.1
2017-Aug-14 21:31N 40°36' W 074°03'1121.8
2017-Aug-14 21:00N 40°25' W 073°60'1122.5
2017-Aug-14 20:30N 40°36' W 074°03'713.6
2017-Aug-14 20:01N 40°42' W 074°00'3 5.7
2017-Aug-14 19:31N 40°39' W 074°01'1526.8
2017-Aug-14 18:57N 40°25' W 073°60'0 0.6
2017-Aug-14 18:30N 40°25' W 074°00'918.2
2017-Aug-14 18:00N 40°34' W 074°02'918.0
2017-Aug-14 17:31N 40°42' W 073°60'1 1.2
2017-Aug-14 17:01N 40°42' W 074°00'1630.7
2017-Aug-14 16:30N 40°26' W 074°01'2 3.1
2017-Aug-14 15:57N 40°28' W 074°01'1228.5
2017-Aug-14 15:31N 40°40' W 074°01'4 7.9
2017-Aug-14 15:00N 40°43' W 073°58'613.0
2017-Aug-14 14:30N 40°38' W 074°03'1216.0
2017-Aug-14 13:44N 40°26' W 074°01'821.2
2017-Aug-14 13:20N 40°34' W 074°02'825.6
2017-Aug-14 13:00N 40°42' W 074°00'3 5.9
2017-Aug-14 12:31N 40°44' W 073°58'815.7
2017-Aug-14 12:01N 40°37' W 074°03'1219.5
2017-Aug-14 11:23N 40°25' W 074°02'0 0.0
2017-Aug-14 10:58N 40°25' W 074°02'0 0.0
2017-Aug-14 10:30N 40°25' W 074°02'0 0.0
2017-Aug-14 01:22N 40°25' W 074°02'2 1.9
2017-Aug-14 00:22N 40°25' W 073°60'923.8
2017-Aug-14 00:00N 40°33' W 073°57'3 6.4
2017-Aug-13 23:29N 40°34' W 074°01'817.0
2017-Aug-13 23:00N 40°42' W 074°00'0 0.0
2017-Aug-13 22:30N 40°42' W 074°00'4 8.4
2017-Aug-13 22:01N 40°38' W 074°02'8 7.6
2017-Aug-13 20:57N 40°34' W 073°53'817.6
2017-Aug-13 20:30N 40°39' W 074°02'3 7.0
2017-Aug-13 20:01N 40°42' W 074°00'0 0.0
2017-Aug-13 19:30N 40°42' W 074°00'510.5
2017-Aug-13 19:00N 40°37' W 074°03'7 7.0
2017-Aug-13 17:59N 40°34' W 073°54'715.2
2017-Aug-13 17:30N 40°39' W 074°02'4 7.0
2017-Aug-13 17:00N 40°42' W 074°00'0 0.0
2017-Aug-13 16:30N 40°42' W 074°00'3 7.0
2017-Aug-13 16:01N 40°39' W 074°02'915.6
2017-Aug-13 15:28N 40°35' W 073°52'2 3.7
2017-Aug-13 14:52N 40°34' W 073°55'720.8
2017-Aug-13 14:31N 40°39' W 074°02'4 7.0
2017-Aug-13 14:01N 40°42' W 074°00'1 1.2
2017-Aug-13 13:31N 40°42' W 074°01'1326.2
2017-Aug-13 13:00N 40°28' W 074°01'3 6.2
2017-Aug-13 12:28N 40°25' W 074°02'8 0.6
2017-Aug-12 23:03N 40°33' W 074°02'235.3
2017-Aug-12 23:00N 40°35' W 074°03'715.1
2017-Aug-12 22:31N 40°42' W 074°00'0 0.0
2017-Aug-12 22:01N 40°42' W 074°00'0 0.0
2017-Aug-12 21:30N 40°42' W 074°00'0 0.0
2017-Aug-12 21:00N 40°42' W 074°00'0 0.0
2017-Aug-12 20:30N 40°42' W 074°00'0 0.0
2017-Aug-12 20:01N 40°42' W 074°00'0 0.0
2017-Aug-12 19:30N 40°42' W 074°00'0 0.0
2017-Aug-12 19:01N 40°42' W 074°00'0 0.0
2017-Aug-12 18:31N 40°42' W 074°00'0 0.0
2017-Aug-12 18:01N 40°42' W 074°00'0 0.0
2017-Aug-12 17:30N 40°42' W 074°00'0 0.0
2017-Aug-12 17:00N 40°42' W 074°00'0 0.0
2017-Aug-12 16:30N 40°42' W 074°00'0 0.0
2017-Aug-12 16:01N 40°42' W 074°00'0 0.0
2017-Aug-12 15:30N 40°42' W 074°00'0 0.1
2017-Aug-12 15:01N 40°42' W 074°00'0 0.2
2017-Aug-12 14:30N 40°42' W 074°00'0 0.0
2017-Aug-12 14:00N 40°42' W 074°00'0 0.0
2017-Aug-12 13:30N 40°42' W 074°00'1121.3
2017-Aug-12 13:01N 40°32' W 074°02'6 0.7
2017-Aug-12 03:24N 40°26' W 074°01'0 0.3
2017-Aug-12 02:59N 40°25' W 074°01'3 6.8
2017-Aug-12 02:30N 40°29' W 074°02'1427.9
2017-Aug-12 02:00N 40°42' W 074°00'3 5.8
2017-Aug-12 01:30N 40°45' W 073°58'918.5
2017-Aug-12 01:00N 40°36' W 074°02'1219.2
2017-Aug-12 00:24N 40°25' W 073°60'0 0.1
2017-Aug-11 23:42N 40°25' W 073°60'1 3.3
2017-Aug-11 23:19N 40°25' W 074°01'912.9
2017-Aug-11 22:38N 40°34' W 074°02'431.5
2017-Aug-11 22:31N 40°38' W 074°03'815.1
2017-Aug-11 22:00N 40°45' W 073°58'1427.3
2017-Aug-11 21:30N 40°31' W 074°02'713.5
2017-Aug-11 21:00N 40°25' W 073°60'1223.8
2017-Aug-11 20:31N 40°36' W 074°03'816.0
2017-Aug-11 20:01N 40°43' W 073°58'816.3
2017-Aug-11 19:30N 40°36' W 074°02'11 9.8
2017-Aug-11 18:25N 40°25' W 074°02'921.1
2017-Aug-11 17:58N 40°35' W 074°03'817.2
2017-Aug-11 17:31N 40°42' W 074°00'0 0.5
2017-Aug-11 17:01N 40°42' W 074°00'7 5.4
2017-Aug-11 15:45N 40°35' W 074°03'730.1
2017-Aug-11 15:30N 40°42' W 074°00'3 5.7
2017-Aug-11 15:01N 40°44' W 073°58'1713.0
2017-Aug-11 13:40N 40°27' W 074°01'720.3
2017-Aug-11 13:19N 40°34' W 074°02'825.9
2017-Aug-11 13:01N 40°42' W 074°00'3 5.8
2017-Aug-11 12:30N 40°45' W 073°58'510.5
2017-Aug-11 12:01N 40°40' W 074°01'1528.9
2017-Aug-11 11:30N 40°25' W 074°02'0 0.0
2017-Aug-11 10:50N 40°25' W 074°02'0 0.0
2017-Aug-11 10:30N 40°25' W 074°02'1 0.1
2017-Aug-11 02:50N 40°25' W 074°01'816.9
2017-Aug-11 02:21N 40°34' W 074°02'925.3
2017-Aug-11 02:00N 40°42' W 074°00'3 5.9
2017-Aug-11 01:31N 40°45' W 073°58'713.4
2017-Aug-11 01:01N 40°39' W 074°02'1426.5
2017-Aug-11 00:28N 40°25' W 073°60'0 0.0
2017-Aug-10 23:23N 40°25' W 073°60'0 0.1
2017-Aug-10 23:01N 40°25' W 073°60'1325.4
2017-Aug-10 22:30N 40°37' W 074°03'816.2
2017-Aug-10 22:00N 40°45' W 073°58'1121.7
2017-Aug-10 21:30N 40°34' W 074°03'1018.7
2017-Aug-10 20:59N 40°25' W 073°60'1124.2
2017-Aug-10 20:30N 40°36' W 074°03'816.1
2017-Aug-10 20:01N 40°43' W 073°58'815.8
2017-Aug-10 19:30N 40°36' W 074°03'1212.6
2017-Aug-10 18:35N 40°25' W 073°60'0 0.3
2017-Aug-10 18:29N 40°25' W 073°60'917.4
2017-Aug-10 18:00N 40°33' W 074°02'919.3
2017-Aug-10 17:31N 40°42' W 074°00'1 2.0
2017-Aug-10 17:01N 40°42' W 073°59'1528.4
2017-Aug-10 16:30N 40°28' W 074°01'1 1.3
2017-Aug-10 15:57N 40°28' W 074°01'1329.1
2017-Aug-10 15:31N 40°41' W 074°02'4 7.5
2017-Aug-10 15:01N 40°44' W 073°58'713.2
2017-Aug-10 14:31N 40°38' W 074°03'1320.2
2017-Aug-10 13:53N 40°25' W 074°02'612.7
2017-Aug-10 13:24N 40°31' W 074°02'1128.2
2017-Aug-10 13:00N 40°42' W 074°00'3 5.8
2017-Aug-10 12:30N 40°45' W 073°58'612.4
2017-Aug-10 12:01N 40°39' W 074°02'1421.3
2017-Aug-10 11:21N 40°25' W 074°02'0 0.0
2017-Aug-10 10:46N 40°25' W 074°02'8 1.0
2017-Aug-10 02:20N 40°34' W 074°02'926.3
2017-Aug-10 02:01N 40°42' W 074°00'3 5.8
2017-Aug-10 01:30N 40°45' W 073°58'815.3
2017-Aug-10 01:01N 40°38' W 074°03'13 9.0
2017-Aug-09 23:30N 40°25' W 073°60'6 8.7
2017-Aug-09 22:51N 40°30' W 074°02'927.8
2017-Aug-09 22:31N 40°39' W 074°02'611.3
2017-Aug-09 22:00N 40°45' W 073°58'1021.0
2017-Aug-09 21:31N 40°35' W 074°03'1120.2
2017-Aug-09 20:59N 40°25' W 073°60'1224.5
2017-Aug-09 20:30N 40°36' W 074°03'612.8
2017-Aug-09 20:01N 40°42' W 074°00'4 7.5
2017-Aug-09 19:31N 40°39' W 074°02'1415.7
2017-Aug-09 18:36N 40°25' W 073°60'0 0.2
2017-Aug-09 18:30N 40°25' W 073°60'918.1
2017-Aug-09 17:59N 40°34' W 074°02'818.1
2017-Aug-09 17:31N 40°42' W 074°00'0 0.9
2017-Aug-09 17:01N 40°42' W 073°60'1428.4
2017-Aug-09 16:30N 40°28' W 074°02'7 8.7
2017-Aug-09 15:41N 40°35' W 074°03'531.4
2017-Aug-09 15:31N 40°41' W 074°01'5 9.1
2017-Aug-09 15:00N 40°44' W 073°58'815.0
2017-Aug-09 14:30N 40°38' W 074°03'1324.2
2017-Aug-09 13:59N 40°25' W 074°02'913.7
2017-Aug-09 13:21N 40°34' W 074°02'824.7
2017-Aug-09 13:00N 40°42' W 074°00'3 5.8
2017-Aug-09 12:30N 40°45' W 073°58'714.3
2017-Aug-09 12:01N 40°38' W 074°02'1325.8
2017-Aug-09 11:30N 40°25' W 074°02'2 3.3
2017-Aug-09 10:56N 40°25' W 073°60'  

Dump ship's entire track history